Terminal Aerodrome Forecast
Issued by NWS Duluth, MN

Home | Current Version | Previous Version | Text Only | Print | Product List | Glossary On
Versions: 1 2 3 4 5 6 7 8 9 10 11 12 13 14 15 16 17 18 19 20 21 22 23
000
FTUS43 KDLH 232334
TAFDLH
TAF
KDLH 232334Z 2400/2424 10009KT P6SM SCT018 BKN120
      TEMPO 2400/2402 BKN018
     FM240300 10007KT 6SM BR SCT007 BKN018
      TEMPO 2406/2410 2SM -TSRA BR BKN007CB OVC015
     FM241000 19004KT 4SM BR OVC007
     FM241300 28014G22KT P6SM SCT015=

USA.gov is the U.S. government's official web portal to all federal, state and local government web resources and services.